createdAt,value
2022-08-05T00:00:21.980Z,10.13
2022-08-05T00:02:52.416Z,11.80
2022-08-05T00:06:02.133Z,9.50
2022-08-05T00:08:32.827Z,11.50
2022-08-05T00:11:23.932Z,11.67
2022-08-05T00:13:57.803Z,12.37
2022-08-05T00:16:35.443Z,12.33
2022-08-05T00:19:07.548Z,14.97
2022-08-05T00:21:37.483Z,15.50
2022-08-05T00:24:16.164Z,15.37
2022-08-05T00:26:50.865Z,13.87
2022-08-05T00:29:22.714Z,15.67
2022-08-05T00:32:12.634Z,14.97
2022-08-05T00:35:04.759Z,15.00
2022-08-05T00:37:35.856Z,14.97
2022-08-05T00:40:29.345Z,15.80
2022-08-05T00:43:00.704Z,15.93
2022-08-05T00:45:38.547Z,16.60
2022-08-05T00:48:10.756Z,15.00
2022-08-05T00:50:44.165Z,15.73
2022-08-05T00:54:00.820Z,15.60
2022-08-05T00:56:09.250Z,14.00
2022-08-05T00:58:42.406Z,14.67
2022-08-05T01:01:16.232Z,16.27
2022-08-05T01:04:14.175Z,16.20
2022-08-05T01:06:48.525Z,15.23
2022-08-05T01:09:19.973Z,16.10
2022-08-05T01:11:56.364Z,17.63
2022-08-05T01:14:33.385Z,17.30
2022-08-05T01:17:07.827Z,17.67
2022-08-05T01:20:00.754Z,18.10
2022-08-05T01:22:46.955Z,19.63
2022-08-05T01:25:53.204Z,18.03
2022-08-05T01:28:39.511Z,18.33
2022-08-05T01:31:13.619Z,17.30
2022-08-05T01:33:57.463Z,16.53
2022-08-05T01:36:34.093Z,18.17
2022-08-05T01:39:04.921Z,19.47
2022-08-05T01:41:40.331Z,20.57
2022-08-05T01:44:18.241Z,21.00
2022-08-05T01:46:49.074Z,21.20
2022-08-05T01:49:25.921Z,19.97
2022-08-05T01:52:17.882Z,19.47
2022-08-05T01:54:52.753Z,20.80
2022-08-05T01:58:10.297Z,20.10
2022-08-05T02:00:30.511Z,20.80
2022-08-05T02:03:06.732Z,18.13
2022-08-05T02:05:59.800Z,19.30
2022-08-05T02:08:33.368Z,19.33
2022-08-05T02:11:11.758Z,17.97
2022-08-05T02:13:53.674Z,16.90
2022-08-05T02:16:29.981Z,17.17
2022-08-05T02:19:07.232Z,18.00
2022-08-05T02:21:46.653Z,15.30
2022-08-05T02:24:23.454Z,16.60
2022-08-05T02:26:57.809Z,16.37
2022-08-05T02:29:59.724Z,15.90
2022-08-05T02:32:30.564Z,15.60
2022-08-05T02:35:13.685Z,17.30
2022-08-05T02:37:47.794Z,16.83
2022-08-05T02:40:26.121Z,17.03
2022-08-05T02:42:59.164Z,18.33
2022-08-05T02:45:51.520Z,16.27
2022-08-05T02:48:29.517Z,17.13
2022-08-05T02:51:01.453Z,17.00
2022-08-05T02:53:39.480Z,18.00
2022-08-05T02:56:16.098Z,18.03
2022-08-05T02:58:52.643Z,17.50
2022-08-05T03:01:26.986Z,19.30
2022-08-05T03:04:11.988Z,19.17
2022-08-05T03:06:55.815Z,18.77
2022-08-05T03:09:38.181Z,19.90
2022-08-05T03:12:09.726Z,18.70
2022-08-05T03:14:46.117Z,20.00
2022-08-05T03:17:17.776Z,19.20
2022-08-05T03:19:52.541Z,19.10
2022-08-05T03:22:31.888Z,17.80
2022-08-05T03:25:34.014Z,17.73
2022-08-05T03:27:59.980Z,18.60
2022-08-05T03:30:34.217Z,16.97
2022-08-05T03:33:05.945Z,17.67
2022-08-05T03:35:40.945Z,18.17
2022-08-05T03:38:14.412Z,19.63
2022-08-05T03:40:45.158Z,19.17
2022-08-05T03:44:08.433Z,17.60
2022-08-05T03:46:08.443Z,18.67
2022-08-05T03:48:38.161Z,19.40
2022-08-05T03:52:35.120Z,17.57
2022-08-05T03:55:51.092Z,18.37
2022-08-05T03:57:02.362Z,18.80
2022-08-05T03:59:54.982Z,18.60
2022-08-05T04:02:39.140Z,19.00
2022-08-05T04:05:19.736Z,18.50
2022-08-05T04:07:57.978Z,20.10
2022-08-05T04:10:37.136Z,19.93
2022-08-05T04:13:09.176Z,18.60
2022-08-05T04:15:39.455Z,21.17
2022-08-05T04:18:29.542Z,18.33
2022-08-05T04:21:00.876Z,18.17
2022-08-05T04:23:58.368Z,17.87
2022-08-05T04:26:23.669Z,19.17
2022-08-05T04:28:53.443Z,17.63
2022-08-05T04:31:23.513Z,15.67
2022-08-05T04:34:31.522Z,17.70
2022-08-05T04:36:50.052Z,17.10
2022-08-05T04:39:23.554Z,16.50
2022-08-05T04:41:53.783Z,15.93
2022-08-05T04:44:30.111Z,16.30
2022-08-05T04:47:09.589Z,16.33
2022-08-05T04:50:01.413Z,15.90
2022-08-05T04:52:33.362Z,15.63
2022-08-05T04:55:14.981Z,14.73
2022-08-05T04:57:51.664Z,14.70
2022-08-05T05:00:24.321Z,14.40
2022-08-05T05:02:54.492Z,15.00
2022-08-05T05:05:28.585Z,13.73
2022-08-05T05:08:03.301Z,14.80
2022-08-05T05:10:42.240Z,14.17
2022-08-05T05:13:25.792Z,13.70
2022-08-05T05:16:05.913Z,11.77
2022-08-05T05:18:37.928Z,10.80
2022-08-05T05:21:07.927Z,10.00
2022-08-05T05:24:04.100Z,9.40
2022-08-05T05:26:33.883Z,10.97
2022-08-05T05:29:14.313Z,10.73
2022-08-05T05:31:46.483Z,10.50
2022-08-05T05:34:21.168Z,10.43
2022-08-05T05:36:53.682Z,9.97
2022-08-05T05:39:24.943Z,9.83
2022-08-05T05:42:04.077Z,9.03
2022-08-05T05:44:37.543Z,8.50
2022-08-05T05:47:21.590Z,8.10
2022-08-05T05:50:01.450Z,7.60
2022-08-05T05:52:34.733Z,7.60
2022-08-05T05:55:13.887Z,7.57
2022-08-05T05:57:52.122Z,7.60
2022-08-05T06:00:31.490Z,7.20
2022-08-05T06:03:39.695Z,6.63
2022-08-05T06:05:55.669Z,6.90
2022-08-05T06:08:32.253Z,6.27
2022-08-05T06:11:04.050Z,7.10
2022-08-05T06:13:40.531Z,8.33
2022-08-05T06:16:30.493Z,7.50
2022-08-05T06:19:05.773Z,7.77
2022-08-05T06:21:38.842Z,6.27
2022-08-05T06:24:14.740Z,6.97
2022-08-05T06:26:51.571Z,7.17
2022-08-05T06:29:48.914Z,8.20
2022-08-05T06:32:21.468Z,7.20
2022-08-05T06:34:58.518Z,7.20
2022-08-05T06:37:57.728Z,7.77
2022-08-05T06:40:27.884Z,7.40
2022-08-05T06:43:02.326Z,8.60
2022-08-05T06:45:44.981Z,7.63
2022-08-05T06:48:52.920Z,8.20
2022-08-05T06:51:26.738Z,7.90
2022-08-05T06:54:01.926Z,7.70
2022-08-05T06:56:34.319Z,5.90
2022-08-05T06:59:08.323Z,6.60
2022-08-05T07:01:47.453Z,5.80
2022-08-05T07:04:23.977Z,6.13
2022-08-05T07:06:57.119Z,5.83
2022-08-05T07:09:32.192Z,5.60
2022-08-05T07:12:02.622Z,6.37
2022-08-05T07:14:46.109Z,5.83
2022-08-05T07:18:09.381Z,5.40
2022-08-05T07:20:32.301Z,6.63
2022-08-05T07:23:01.495Z,6.83
2022-08-05T07:25:55.229Z,8.57
2022-08-05T07:28:26.403Z,6.30
2022-08-05T07:30:56.431Z,6.80
2022-08-05T07:33:35.222Z,6.43
2022-08-05T07:36:20.814Z,6.87
2022-08-05T07:38:55.017Z,7.70
2022-08-05T07:42:13.252Z,7.37
2022-08-05T07:44:19.124Z,8.03
2022-08-05T07:46:51.726Z,7.40
2022-08-05T07:49:24.402Z,8.67
2022-08-05T07:51:55.347Z,9.57
2022-08-05T07:54:31.767Z,8.83
2022-08-05T07:57:22.579Z,8.27
2022-08-05T07:59:55.068Z,8.30
2022-08-05T08:02:30.803Z,7.77
2022-08-05T08:05:04.259Z,6.10
2022-08-05T08:07:39.459Z,6.97
2022-08-05T08:10:24.325Z,6.27
2022-08-05T08:12:58.494Z,5.40
2022-08-05T08:16:33.469Z,5.90
2022-08-05T08:18:21.025Z,4.57
2022-08-05T08:21:03.094Z,5.43
2022-08-05T08:24:01.457Z,5.80
2022-08-05T08:26:27.057Z,4.30
2022-08-05T08:29:02.243Z,4.40
2022-08-05T08:31:52.234Z,4.13
2022-08-05T08:34:30.157Z,4.80
2022-08-05T08:37:05.477Z,3.43
2022-08-05T08:39:37.607Z,3.40
2022-08-05T08:42:33.627Z,4.07
2022-08-05T08:45:25.162Z,3.70
2022-08-05T08:48:07.415Z,3.83
2022-08-05T08:51:03.334Z,3.77
2022-08-05T08:53:44.970Z,3.73
2022-08-05T08:56:15.228Z,3.90
2022-08-05T08:58:47.932Z,4.57
2022-08-05T09:01:19.669Z,4.27
2022-08-05T09:03:55.630Z,4.90
2022-08-05T09:06:30.907Z,5.23
2022-08-05T09:09:04.786Z,4.60
2022-08-05T09:11:53.760Z,4.73
2022-08-05T09:14:57.714Z,5.83
2022-08-05T09:17:40.891Z,4.20
2022-08-05T09:20:09.808Z,5.10
2022-08-05T09:23:19.810Z,5.57
2022-08-05T09:26:03.274Z,5.30
2022-08-05T09:28:35.926Z,4.67
2022-08-05T09:31:18.228Z,4.97
2022-08-05T09:34:01.804Z,4.90
2022-08-05T09:36:55.082Z,4.90
2022-08-05T09:39:44.971Z,5.03
2022-08-05T09:42:24.452Z,5.23
2022-08-05T09:45:17.260Z,5.27
2022-08-05T09:47:55.902Z,5.43
2022-08-05T09:50:44.086Z,5.43
2022-08-05T09:53:26.166Z,7.17
2022-08-05T09:56:13.402Z,5.97
2022-08-05T09:58:59.096Z,6.07
2022-08-05T10:01:32.578Z,6.50
2022-08-05T10:04:10.403Z,5.37
2022-08-05T10:06:55.059Z,6.10
2022-08-05T10:09:29.887Z,7.73
2022-08-05T10:12:30.530Z,6.03
2022-08-05T10:15:21.792Z,7.20
2022-08-05T10:18:16.926Z,8.93
2022-08-05T10:20:49.568Z,9.20
2022-08-05T10:23:55.591Z,10.93
2022-08-05T10:26:14.458Z,11.30
2022-08-05T10:28:46.582Z,11.13
2022-08-05T10:32:55.078Z,12.67
2022-08-05T10:34:10.804Z,13.50
2022-08-05T10:36:44.517Z,12.73
2022-08-05T10:39:25.170Z,14.37
2022-08-05T10:42:15.609Z,14.00
2022-08-05T10:44:49.594Z,10.87
2022-08-05T10:47:25.918Z,10.57
2022-08-05T10:50:20.268Z,10.10
2022-08-05T10:52:58.748Z,10.07
2022-08-05T10:56:03.832Z,10.97
2022-08-05T10:58:36.037Z,9.53
2022-08-05T11:01:15.129Z,8.80
2022-08-05T11:04:06.630Z,9.80
2022-08-05T11:06:39.077Z,9.07
2022-08-05T11:09:16.873Z,8.40
2022-08-05T11:11:52.725Z,8.70
2022-08-05T11:15:12.176Z,8.13
2022-08-05T11:18:07.343Z,8.67
2022-08-05T11:20:44.585Z,8.37
2022-08-05T11:24:03.783Z,6.90
2022-08-05T11:26:32.496Z,6.40
2022-08-05T11:29:13.805Z,6.20
2022-08-05T11:31:56.929Z,5.67
2022-08-05T11:34:51.393Z,4.97
2022-08-05T11:38:29.051Z,4.10
2022-08-05T11:41:35.103Z,3.77
2022-08-05T11:44:07.492Z,3.03
2022-08-05T11:47:10.224Z,2.83
2022-08-05T11:49:34.054Z,3.40
2022-08-05T11:52:11.084Z,3.47
2022-08-05T11:54:43.636Z,3.37
2022-08-05T11:57:25.467Z,2.63
2022-08-05T12:00:28.954Z,3.17
2022-08-05T12:03:01.089Z,2.93
2022-08-05T12:05:39.807Z,3.67
2022-08-05T12:08:11.748Z,3.10
2022-08-05T12:10:52.723Z,4.20
2022-08-05T12:13:48.048Z,2.50
2022-08-05T12:16:26.984Z,2.77
2022-08-05T12:18:57.249Z,2.90
2022-08-05T12:21:30.624Z,3.30
2022-08-05T12:24:04.855Z,2.50
2022-08-05T12:26:36.561Z,2.57
2022-08-05T12:29:15.883Z,2.13
2022-08-05T12:31:53.639Z,2.50
2022-08-05T12:34:28.443Z,3.00
2022-08-05T12:36:59.926Z,2.67
2022-08-05T12:39:34.470Z,3.20
2022-08-05T12:42:14.332Z,2.80
2022-08-05T12:44:48.625Z,2.57
2022-08-05T12:47:30.955Z,3.10
2022-08-05T12:50:06.231Z,2.80
2022-08-05T12:52:42.252Z,3.20
2022-08-05T12:55:23.619Z,2.97
2022-08-05T12:58:49.788Z,2.70
2022-08-05T13:02:02.287Z,2.50
2022-08-05T13:03:43.283Z,3.13
2022-08-05T13:06:19.954Z,3.20
2022-08-05T13:08:52.178Z,3.20
2022-08-05T13:11:46.969Z,3.00
2022-08-05T13:14:19.391Z,3.10
2022-08-05T13:16:56.420Z,3.53
2022-08-05T13:19:51.916Z,3.00
2022-08-05T13:22:29.277Z,2.50
2022-08-05T13:25:05.770Z,2.80
2022-08-05T13:27:41.513Z,2.57
2022-08-05T13:30:34.810Z,2.60
2022-08-05T13:33:06.545Z,2.93
2022-08-05T13:35:47.176Z,3.33
2022-08-05T13:38:30.296Z,2.20
2022-08-05T13:41:01.608Z,2.60
2022-08-05T13:43:45.446Z,3.13
2022-08-05T13:46:38.005Z,2.93
2022-08-05T13:49:16.039Z,2.50
2022-08-05T13:51:47.019Z,3.43
2022-08-05T13:54:21.178Z,3.37
2022-08-05T13:56:56.132Z,3.40
2022-08-05T13:59:27.001Z,3.93
2022-08-05T14:02:00.507Z,3.33
2022-08-05T14:04:50.085Z,3.27
2022-08-05T14:07:55.363Z,3.03
2022-08-05T14:10:18.849Z,2.50
2022-08-05T14:12:54.505Z,2.70
2022-08-05T14:16:06.161Z,2.90
2022-08-05T14:18:18.039Z,3.07
2022-08-05T14:20:52.921Z,3.10
2022-08-05T14:23:26.447Z,2.80
2022-08-05T14:25:59.723Z,2.97
2022-08-05T14:28:31.794Z,2.30
2022-08-05T14:31:02.496Z,3.00
2022-08-05T14:33:59.249Z,2.83
2022-08-05T14:36:26.101Z,2.80
2022-08-05T14:38:56.973Z,2.80
2022-08-05T14:41:27.641Z,2.60
2022-08-05T14:44:09.728Z,3.00
2022-08-05T14:46:48.814Z,2.60
2022-08-05T14:49:18.643Z,2.67
2022-08-05T14:51:52.208Z,2.50
2022-08-05T14:54:28.479Z,2.47
2022-08-05T14:57:05.124Z,3.57
2022-08-05T14:59:40.381Z,2.90
2022-08-05T15:02:15.748Z,2.83
2022-08-05T15:04:47.795Z,2.53
2022-08-05T15:08:11.432Z,2.70
2022-08-05T15:10:13.946Z,2.67
2022-08-05T15:13:00.350Z,2.00
2022-08-05T15:15:54.127Z,2.53
2022-08-05T15:18:25.098Z,2.10
2022-08-05T15:20:54.753Z,2.37
2022-08-05T15:23:27.044Z,1.87
2022-08-05T15:26:01.008Z,1.87
2022-08-05T15:28:32.777Z,2.30
2022-08-05T15:31:03.618Z,1.73
2022-08-05T15:34:05.867Z,2.10
2022-08-05T15:36:26.204Z,2.50
2022-08-05T15:40:58.793Z,1.53
2022-08-05T15:41:55.698Z,1.83
2022-08-05T15:44:27.602Z,2.23
2022-08-05T15:46:57.968Z,1.70
2022-08-05T15:49:48.298Z,1.97
2022-08-05T15:52:53.737Z,1.30
2022-08-05T15:55:16.616Z,1.77
2022-08-05T15:57:49.035Z,1.60
2022-08-05T16:00:26.443Z,2.23
2022-08-05T16:03:02.718Z,1.27
2022-08-05T16:05:32.984Z,1.37
2022-08-05T16:08:03.706Z,1.53
2022-08-05T16:10:37.479Z,1.40
2022-08-05T16:13:11.347Z,1.87
2022-08-05T16:15:41.128Z,1.67
2022-08-05T16:18:12.389Z,1.60
2022-08-05T16:20:44.133Z,1.57
2022-08-05T16:23:16.799Z,1.17
2022-08-05T16:25:49.913Z,1.00
2022-08-05T16:28:26.802Z,0.63
2022-08-05T16:30:58.647Z,0.80
2022-08-05T16:33:32.144Z,1.10
2022-08-05T16:36:13.145Z,0.77
2022-08-05T16:38:55.005Z,0.60
2022-08-05T16:42:27.781Z,0.70
2022-08-05T16:44:21.113Z,0.90
2022-08-05T16:46:56.337Z,0.80
2022-08-05T16:49:26.601Z,0.70
2022-08-05T16:51:59.035Z,0.70
2022-08-05T16:54:32.880Z,0.83
2022-08-05T16:57:14.873Z,0.80
2022-08-05T17:00:02.951Z,0.80
2022-08-05T17:02:38.470Z,0.80
2022-08-05T17:05:09.618Z,0.90
2022-08-05T17:07:44.380Z,0.90
2022-08-05T17:10:26.494Z,0.70
2022-08-05T17:13:02.823Z,0.73
2022-08-05T17:15:47.826Z,0.70
2022-08-05T17:18:19.168Z,1.30
2022-08-05T17:20:50.576Z,0.77
2022-08-05T17:24:05.229Z,1.00
2022-08-05T17:26:10.132Z,0.63
2022-08-05T17:28:44.112Z,0.80
2022-08-05T17:31:24.632Z,0.70
2022-08-05T17:34:06.912Z,1.20
2022-08-05T17:36:40.452Z,0.70
2022-08-05T17:39:24.494Z,0.80
2022-08-05T17:42:17.825Z,0.80
2022-08-05T17:44:53.866Z,1.20
2022-08-05T17:47:23.794Z,0.70
2022-08-05T17:50:03.650Z,0.97
2022-08-05T17:52:34.995Z,1.13
2022-08-05T17:55:27.208Z,1.27
2022-08-05T17:58:05.650Z,1.00
2022-08-05T18:00:40.911Z,0.97
2022-08-05T18:03:56.525Z,1.10
2022-08-05T18:06:11.863Z,0.80
2022-08-05T18:08:52.223Z,0.77
2022-08-05T18:11:32.873Z,0.80
2022-08-05T18:14:07.290Z,0.80
2022-08-05T18:16:51.293Z,0.77
2022-08-05T18:19:22.644Z,0.80
2022-08-05T18:22:08.226Z,0.70
2022-08-05T18:24:41.223Z,0.70
2022-08-05T18:27:12.325Z,0.90
2022-08-05T18:29:42.591Z,0.87
2022-08-05T18:32:28.353Z,1.00
2022-08-05T18:35:01.379Z,0.90
2022-08-05T18:37:34.592Z,0.70
2022-08-05T18:41:53.167Z,0.87
2022-08-05T18:43:03.857Z,0.90
2022-08-05T18:45:41.661Z,0.70
2022-08-05T18:48:30.906Z,1.00
2022-08-05T18:52:04.747Z,1.53
2022-08-05T18:54:09.728Z,0.83
2022-08-05T18:56:39.525Z,0.80
2022-08-05T18:59:41.858Z,0.80
2022-08-05T19:01:59.264Z,0.80
2022-08-05T19:04:37.457Z,0.70
2022-08-05T19:07:46.275Z,0.73
2022-08-05T19:10:18.949Z,1.00
2022-08-05T19:12:59.143Z,0.93
2022-08-05T19:15:57.036Z,0.97
2022-08-05T19:18:22.907Z,0.70
2022-08-05T19:20:56.538Z,0.90
2022-08-05T19:24:07.299Z,1.00
2022-08-05T19:26:22.485Z,1.17
2022-08-05T19:28:57.893Z,0.60
2022-08-05T19:31:30.825Z,0.77
2022-08-05T19:34:14.585Z,0.83
2022-08-05T19:36:51.307Z,0.80
2022-08-05T19:39:21.664Z,0.80
2022-08-05T19:42:07.671Z,0.73
2022-08-05T19:44:45.030Z,1.10
2022-08-05T19:47:16.649Z,0.80
2022-08-05T19:49:48.260Z,0.80
2022-08-05T19:52:31.043Z,1.00
2022-08-05T19:55:06.831Z,0.80
2022-08-05T19:58:06.734Z,0.80
2022-08-05T20:00:50.694Z,0.90
2022-08-05T20:03:24.031Z,0.83
2022-08-05T20:05:56.804Z,0.87
2022-08-05T20:08:31.316Z,0.80
2022-08-05T20:11:02.362Z,0.70
2022-08-05T20:13:58.291Z,0.87
2022-08-05T20:16:23.312Z,0.80
2022-08-05T20:18:55.223Z,0.83
2022-08-05T20:21:27.848Z,1.13
2022-08-05T20:24:06.680Z,0.90
2022-08-05T20:26:36.349Z,0.97
2022-08-05T20:29:07.783Z,0.80
2022-08-05T20:31:59.646Z,1.20
2022-08-05T20:34:29.851Z,0.93
2022-08-05T20:37:01.827Z,1.53
2022-08-05T20:39:36.374Z,1.23
2022-08-05T20:42:08.299Z,0.70
2022-08-05T20:44:41.531Z,0.70
2022-08-05T20:47:11.326Z,0.93
2022-08-05T20:49:41.096Z,0.83
2022-08-05T20:52:12.361Z,1.00
2022-08-05T20:55:15.988Z,0.63
2022-08-05T20:57:44.107Z,0.93
2022-08-05T21:00:40.030Z,1.50
2022-08-05T21:03:08.839Z,1.00
2022-08-05T21:05:54.412Z,0.90
2022-08-05T21:08:26.669Z,0.90
2022-08-05T21:11:10.315Z,1.10
2022-08-05T21:13:47.500Z,0.80
2022-08-05T21:16:30.153Z,0.80
2022-08-05T21:19:01.521Z,0.70
2022-08-05T21:21:39.078Z,1.10
2022-08-05T21:24:12.748Z,1.00
2022-08-05T21:26:57.983Z,0.70
2022-08-05T21:29:31.865Z,0.90
2022-08-05T21:32:03.091Z,0.87
2022-08-05T21:34:35.641Z,1.10
2022-08-05T21:37:08.226Z,0.97
2022-08-05T21:39:40.751Z,1.00
2022-08-05T21:42:43.802Z,1.13
2022-08-05T21:45:03.520Z,0.90
2022-08-05T21:47:56.348Z,0.80
2022-08-05T21:50:26.331Z,0.90
2022-08-05T21:52:58.819Z,0.80
2022-08-05T21:56:01.175Z,1.10
2022-08-05T21:58:24.888Z,1.00
2022-08-05T22:01:02.311Z,1.20
2022-08-05T22:03:48.588Z,0.97
2022-08-05T22:06:36.976Z,0.97
2022-08-05T22:09:14.025Z,1.03
2022-08-05T22:11:46.932Z,1.10
2022-08-05T22:14:34.667Z,1.10
2022-08-05T22:17:07.623Z,1.03
2022-08-05T22:20:00.696Z,0.80
2022-08-05T22:22:29.591Z,0.90
2022-08-05T22:25:17.807Z,1.00
2022-08-05T22:28:09.183Z,1.00
2022-08-05T22:30:56.693Z,0.93
2022-08-05T22:33:58.605Z,1.20
2022-08-05T22:36:18.714Z,1.23
2022-08-05T22:38:49.037Z,1.30
2022-08-05T22:42:05.401Z,1.27
2022-08-05T22:44:11.985Z,0.93
2022-08-05T22:46:45.182Z,0.90
2022-08-05T22:49:45.973Z,1.80
2022-08-05T22:52:12.529Z,0.73
2022-08-05T22:54:50.882Z,1.17
2022-08-05T22:57:20.576Z,0.90
2022-08-05T22:59:53.834Z,1.03
2022-08-05T23:02:29.363Z,0.93
2022-08-05T23:05:02.039Z,1.10
2022-08-05T23:07:44.709Z,1.10
2022-08-05T23:10:19.601Z,1.10
2022-08-05T23:12:51.629Z,1.00
2022-08-05T23:15:26.695Z,1.00
2022-08-05T23:18:00.970Z,1.00
2022-08-05T23:20:33.041Z,0.90
2022-08-05T23:23:06.020Z,1.03
2022-08-05T23:25:52.569Z,1.10
2022-08-05T23:28:28.685Z,0.80
2022-08-05T23:31:07.042Z,1.40
2022-08-05T23:34:03.805Z,1.20
2022-08-05T23:36:39.530Z,1.00
2022-08-05T23:39:17.500Z,1.40
2022-08-05T23:41:53.930Z,1.20
2022-08-05T23:44:28.010Z,1.10
2022-08-05T23:47:02.660Z,1.23
2022-08-05T23:49:47.465Z,0.80
2022-08-05T23:52:32.395Z,1.00
2022-08-05T23:55:09.229Z,1.00
2022-08-05T23:57:40.635Z,1.03
